Time;durP1;ratioP1;P1;durP2;ratioP2;P2;SDS_P1;SDS_P2;PMS_P1;PMS_P2;Temp;Humidity;BMP_temperature;BMP_pressure;BME280_temperature;BME280_humidity;BME280_pressure;Samples;Min_cycle;Max_cycle;Signal;HPM_P1;HPM_P2
2023/10/30 00:00:09;;;;;;;10.43;1.90;;;10.50;99.90;;;;;;4995694;28;20288;-83
2023/10/30 00:02:36;;;;;;;9.18;1.88;;;10.40;99.90;;;;;;4994950;28;20471;-82
2023/10/30 00:05:02;;;;;;;10.30;1.87;;;10.40;99.90;;;;;;4994520;28;20513;-82
2023/10/30 00:07:28;;;;;;;12.90;2.50;;;10.40;99.90;;;;;;4994815;28;20366;-82
2023/10/30 00:09:54;;;;;;;10.70;1.97;;;10.40;99.90;;;;;;4994852;28;20293;-82
2023/10/30 00:12:19;;;;;;;11.93;1.90;;;10.40;99.90;;;;;;4994714;28;20038;-83
2023/10/30 00:14:45;;;;;;;10.63;2.20;;;10.40;99.90;;;;;;4993948;28;20046;-83
2023/10/30 00:17:11;;;;;;;10.20;2.07;;;10.40;99.90;;;;;;4994581;28;20158;-82
2023/10/30 00:19:36;;;;;;;11.23;1.90;;;10.40;99.90;;;;;;4993399;28;20039;-82
2023/10/30 00:22:03;;;;;;;10.30;1.73;;;10.40;99.90;;;;;;4993609;28;20050;-83
2023/10/30 00:24:29;;;;;;;13.90;2.60;;;10.30;99.90;;;;;;4993591;28;20082;-83
2023/10/30 00:26:55;;;;;;;6.67;1.70;;;10.30;99.90;;;;;;4995045;28;20284;-83
2023/10/30 00:29:21;;;;;;;9.00;1.60;;;10.30;99.90;;;;;;4977067;28;20301;-82
2023/10/30 00:31:47;;;;;;;7.20;1.33;;;10.30;99.90;;;;;;4995277;28;20081;-83
2023/10/30 00:34:13;;;;;;;7.13;1.50;;;10.30;99.90;;;;;;4994658;28;20390;-82
2023/10/30 00:36:39;;;;;;;9.93;1.70;;;10.40;99.90;;;;;;4993340;28;20046;-82
2023/10/30 00:39:05;;;;;;;9.70;1.60;;;10.30;99.90;;;;;;4993991;28;20372;-82
2023/10/30 00:41:31;;;;;;;7.53;1.53;;;10.30;99.90;;;;;;4994308;28;20086;-82
2023/10/30 00:43:57;;;;;;;7.73;1.77;;;10.30;99.90;;;;;;4993382;28;20337;-83
2023/10/30 00:46:23;;;;;;;8.93;1.57;;;10.30;99.90;;;;;;4994230;28;20042;-82
2023/10/30 00:48:48;;;;;;;8.57;1.70;;;10.20;99.90;;;;;;4994231;28;20089;-82
2023/10/30 00:51:14;;;;;;;8.37;1.60;;;10.20;99.90;;;;;;4994693;28;20137;-82
2023/10/30 00:53:41;;;;;;;6.60;1.20;;;10.20;99.90;;;;;;4994149;28;20463;-83
2023/10/30 00:56:07;;;;;;;8.27;1.80;;;10.20;99.90;;;;;;4994040;28;20296;-82
2023/10/30 00:58:33;;;;;;;9.20;2.07;;;10.20;99.90;;;;;;4994022;28;20306;-82
2023/10/30 01:01:00;;;;;;;6.17;1.40;;;10.20;99.90;;;;;;4994098;28;20294;-82
2023/10/30 01:03:26;;;;;;;7.93;1.30;;;10.20;99.90;;;;;;4996426;28;20428;-82
2023/10/30 01:05:59;;;;;;;9.60;2.83;;;10.20;99.90;;;;;;5000690;28;20405;-80
2023/10/30 01:08:28;;;;;;;5.77;1.40;;;10.20;99.90;;;;;;5000602;28;20057;-81
2023/10/30 01:10:56;;;;;;;6.27;1.50;;;10.20;99.90;;;;;;5000746;28;20630;-81
2023/10/30 01:13:23;;;;;;;6.80;1.60;;;10.20;99.90;;;;;;5000425;28;20812;-81
2023/10/30 01:15:54;;;;;;;8.90;1.50;;;10.10;99.90;;;;;;5000491;28;20300;-81
2023/10/30 01:18:21;;;;;;;6.00;1.40;;;10.10;99.90;;;;;;4999766;28;20297;-81
2023/10/30 01:20:47;;;;;;;6.00;1.37;;;10.10;99.90;;;;;;4983314;28;20379;-81
2023/10/30 01:23:16;;;;;;;8.67;1.40;;;10.10;99.90;;;;;;4999697;28;20293;-81
2023/10/30 01:25:42;;;;;;;7.83;1.53;;;10.00;99.90;;;;;;5000447;28;20277;-81
2023/10/30 01:28:08;;;;;;;5.23;1.40;;;10.00;99.90;;;;;;4999175;28;20277;-82
2023/10/30 01:30:34;;;;;;;7.03;1.30;;;10.00;99.90;;;;;;4982878;28;20136;-81
2023/10/30 01:32:59;;;;;;;6.60;1.30;;;10.00;99.90;;;;;;5000247;28;20092;-82
2023/10/30 01:35:26;;;;;;;6.47;1.47;;;10.00;99.90;;;;;;5000328;28;20050;-82
2023/10/30 01:37:52;;;;;;;8.10;1.40;;;10.00;99.90;;;;;;4999626;28;20046;-81
2023/10/30 01:40:17;;;;;;;7.43;1.33;;;10.00;99.90;;;;;;4999510;28;20400;-81
2023/10/30 01:42:43;;;;;;;5.20;1.33;;;9.90;99.90;;;;;;4999228;28;20062;-81
2023/10/30 01:45:09;;;;;;;6.00;1.30;;;9.90;99.90;;;;;;5000762;28;20471;-82
2023/10/30 01:47:35;;;;;;;6.67;1.50;;;9.90;99.90;;;;;;4999878;28;20402;-82
2023/10/30 01:50:02;;;;;;;3.83;1.20;;;9.90;99.90;;;;;;5000673;28;20296;-82
2023/10/30 01:52:30;;;;;;;6.97;1.30;;;9.90;99.90;;;;;;4999862;28;20642;-82
2023/10/30 01:54:56;;;;;;;7.40;1.40;;;9.90;99.90;;;;;;4982878;28;20294;-81
2023/10/30 01:57:24;;;;;;;3.93;1.50;;;9.90;99.90;;;;;;5000307;28;20642;-82
2023/10/30 01:59:50;;;;;;;5.77;1.20;;;9.90;99.90;;;;;;5000071;28;20281;-82
2023/10/30 02:02:20;;;;;;;6.33;1.53;;;9.90;99.90;;;;;;4999980;28;20328;-82
2023/10/30 02:04:47;;;;;;;4.13;1.20;;;9.90;99.90;;;;;;4999075;28;20316;-81
2023/10/30 02:07:13;;;;;;;6.13;1.37;;;9.80;99.90;;;;;;5000048;28;20277;-81
2023/10/30 02:09:39;;;;;;;6.00;1.73;;;9.80;99.90;;;;;;4999059;28;20328;-81
2023/10/30 02:12:06;;;;;;;5.47;1.20;;;9.80;99.90;;;;;;4999976;28;20050;-82
2023/10/30 02:14:32;;;;;;;7.13;1.90;;;9.80;99.90;;;;;;4997242;28;20293;-82
2023/10/30 02:16:58;;;;;;;5.17;1.20;;;9.90;99.90;;;;;;4995415;28;20801;-82
2023/10/30 02:19:26;;;;;;;4.77;1.43;;;9.90;99.90;;;;;;4997646;28;20289;-82
2023/10/30 02:21:53;;;;;;;5.67;1.30;;;9.80;99.90;;;;;;4996839;28;20142;-83
2023/10/30 02:24:19;;;;;;;5.53;1.47;;;9.80;99.90;;;;;;4980354;28;20304;-82
2023/10/30 02:26:49;;;;;;;9.67;1.80;;;9.90;99.90;;;;;;4996463;28;20296;-83
2023/10/30 02:29:16;;;;;;;7.83;1.53;;;9.90;99.90;;;;;;4995957;28;20290;-82
2023/10/30 02:31:42;;;;;;;5.97;1.40;;;9.90;99.90;;;;;;4996711;28;20318;-82
2023/10/30 02:34:08;;;;;;;7.47;1.50;;;9.90;99.90;;;;;;4995365;28;20284;-82
2023/10/30 02:36:33;;;;;;;7.20;1.53;;;9.90;99.90;;;;;;4996594;28;20360;-82
2023/10/30 02:38:59;;;;;;;7.33;1.70;;;9.90;99.90;;;;;;4996926;28;20058;-82
2023/10/30 02:41:31;;;;;;;11.33;1.90;;;9.80;99.90;;;;;;4996214;28;20456;-83
2023/10/30 02:43:59;;;;;;;9.97;1.90;;;9.90;99.90;;;;;;4995753;28;20052;-82
2023/10/30 02:46:26;;;;;;;5.93;2.00;;;9.80;99.90;;;;;;4996035;28;20774;-82
2023/10/30 02:48:52;;;;;;;8.47;2.20;;;9.80;99.90;;;;;;4995548;28;20308;-82
2023/10/30 02:51:18;;;;;;;9.67;2.10;;;9.90;99.90;;;;;;4996303;28;20285;-82
2023/10/30 02:53:44;;;;;;;7.83;2.50;;;9.90;99.90;;;;;;4994928;28;20042;-81
2023/10/30 02:56:09;;;;;;;10.33;2.10;;;9.90;99.90;;;;;;4994074;28;20348;-83
2023/10/30 02:58:35;;;;;;;9.77;2.63;;;9.90;99.90;;;;;;4996614;28;20046;-82
2023/10/30 03:01:02;;;;;;;13.20;3.17;;;9.90;99.90;;;;;;4995817;28;20050;-83
2023/10/30 03:03:28;;;;;;;10.80;2.80;;;9.80;99.90;;;;;;4996290;28;20050;-83
2023/10/30 03:05:55;;;;;;;8.37;2.40;;;9.80;99.90;;;;;;4995019;28;20289;-83
2023/10/30 03:08:20;;;;;;;11.53;3.20;;;9.80;99.90;;;;;;4995746;28;20316;-83
2023/10/30 03:10:49;;;;;;;8.27;3.13;;;9.80;99.90;;;;;;4994680;28;20289;-83
2023/10/30 03:13:15;;;;;;;10.60;2.30;;;9.80;99.90;;;;;;4995835;28;20054;-84
2023/10/30 03:15:47;;;;;;;9.60;2.70;;;9.80;99.90;;;;;;4995855;28;20336;-84
2023/10/30 03:18:13;;;;;;;10.00;3.10;;;9.70;99.90;;;;;;4978769;28;20085;-84
2023/10/30 03:20:39;;;;;;;9.23;3.30;;;9.70;99.90;;;;;;4995713;28;20328;-83
2023/10/30 03:23:05;;;;;;;14.77;2.93;;;9.70;99.90;;;;;;4995483;28;20630;-83
2023/10/30 03:25:30;;;;;;;10.93;2.63;;;9.70;99.90;;;;;;4995638;28;20051;-83
2023/10/30 03:27:56;;;;;;;12.77;2.47;;;9.70;99.90;;;;;;4995261;28;20288;-82
2023/10/30 03:30:22;;;;;;;16.13;2.97;;;9.70;99.90;;;;;;4996061;28;20046;-83
2023/10/30 03:32:48;;;;;;;8.50;2.57;;;9.80;99.90;;;;;;4995212;28;20513;-83
2023/10/30 03:35:13;;;;;;;9.50;2.40;;;9.80;99.90;;;;;;4995487;28;20050;-83
2023/10/30 03:37:39;;;;;;;14.70;2.70;;;9.70;99.90;;;;;;4995069;28;20042;-82
2023/10/30 03:40:05;;;;;;;13.63;2.90;;;9.70;99.90;;;;;;4995204;28;20521;-82
2023/10/30 03:42:31;;;;;;;13.87;2.60;;;9.70;99.90;;;;;;4995514;28;20054;-82
2023/10/30 03:44:57;;;;;;;12.90;2.80;;;9.60;99.90;;;;;;4994039;28;20611;-82
2023/10/30 03:47:22;;;;;;;12.80;2.73;;;9.60;99.90;;;;;;4995189;28;20074;-82
2023/10/30 03:49:48;;;;;;;12.20;2.97;;;9.60;99.90;;;;;;4994983;28;20494;-82
2023/10/30 03:52:14;;;;;;;12.20;3.73;;;9.60;99.90;;;;;;4994156;28;20132;-85
2023/10/30 03:54:39;;;;;;;15.50;2.93;;;9.60;99.90;;;;;;4977635;28;20049;-83
2023/10/30 03:57:08;;;;;;;13.10;3.20;;;9.60;99.90;;;;;;4995050;28;20060;-82
2023/10/30 03:59:35;;;;;;;16.30;3.60;;;9.60;99.90;;;;;;4995005;28;20046;-82
2023/10/30 04:02:01;;;;;;;16.13;3.20;;;9.50;99.90;;;;;;4994907;28;20293;-82
2023/10/30 04:04:27;;;;;;;15.60;2.67;;;9.50;99.90;;;;;;4994902;28;20339;-82
2023/10/30 04:06:53;;;;;;;12.97;3.00;;;9.50;99.90;;;;;;4978050;28;20050;-82
2023/10/30 04:09:18;;;;;;;14.33;3.03;;;9.50;99.90;;;;;;4993847;28;20494;-83
2023/10/30 04:11:47;;;;;;;12.10;2.53;;;9.50;99.90;;;;;;4992291;28;20351;-82
2023/10/30 04:14:13;;;;;;;15.07;2.90;;;9.50;99.90;;;;;;4994696;28;20050;-82
2023/10/30 04:16:39;;;;;;;14.03;3.37;;;9.50;99.90;;;;;;4994391;28;20289;-82
2023/10/30 04:19:05;;;;;;;12.53;3.10;;;9.50;99.90;;;;;;4977503;28;20297;-82
2023/10/30 04:21:31;;;;;;;11.80;2.67;;;9.50;99.90;;;;;;4994349;28;20438;-82
2023/10/30 04:23:57;;;;;;;23.93;3.53;;;9.50;99.90;;;;;;4994269;28;20483;-81
2023/10/30 04:26:23;;;;;;;18.87;3.23;;;9.50;99.90;;;;;;4995063;28;20054;-82
2023/10/30 04:28:49;;;;;;;12.60;2.60;;;9.50;99.90;;;;;;4993307;28;20308;-82
2023/10/30 04:31:14;;;;;;;14.97;3.00;;;9.50;99.90;;;;;;4994251;28;20046;-82
2023/10/30 04:33:40;;;;;;;15.83;3.30;;;9.40;99.90;;;;;;4994425;28;20292;-82
2023/10/30 04:36:06;;;;;;;11.03;2.70;;;9.40;99.90;;;;;;4993417;28;20050;-82
2023/10/30 04:38:33;;;;;;;15.63;3.00;;;9.50;99.90;;;;;;4992341;28;20058;-83
2023/10/30 04:41:05;;;;;;;18.90;3.73;;;9.50;99.90;;;;;;4994389;28;20288;-82
2023/10/30 04:43:34;;;;;;;12.13;3.00;;;9.40;99.90;;;;;;4994283;28;20442;-82
2023/10/30 04:46:00;;;;;;;15.47;2.90;;;9.40;99.90;;;;;;4993548;28;20277;-82
2023/10/30 04:48:26;;;;;;;12.27;2.57;;;9.40;99.90;;;;;;4994261;28;20710;-82
2023/10/30 04:50:52;;;;;;;14.73;2.57;;;9.40;99.90;;;;;;4993268;28;20399;-82
2023/10/30 04:53:17;;;;;;;15.03;2.47;;;9.40;99.90;;;;;;4993271;28;20137;-82
2023/10/30 04:55:43;;;;;;;17.30;3.00;;;9.40;99.90;;;;;;4994156;28;20068;-82
2023/10/30 04:58:09;;;;;;;16.57;3.63;;;9.40;99.90;;;;;;4977558;28;20046;-81
2023/10/30 05:00:35;;;;;;;11.80;2.63;;;9.40;99.90;;;;;;4994333;28;20073;-82
2023/10/30 05:03:01;;;;;;;14.63;3.07;;;9.40;99.90;;;;;;4992842;28;20066;-82
2023/10/30 05:05:28;;;;;;;14.00;3.23;;;9.40;99.90;;;;;;4993111;28;20321;-82
2023/10/30 05:07:53;;;;;;;12.03;2.50;;;9.30;99.90;;;;;;4993103;28;20294;-82
2023/10/30 05:10:19;;;;;;;14.70;3.53;;;9.40;99.90;;;;;;4993853;28;20780;-82
2023/10/30 05:12:45;;;;;;;15.30;3.23;;;9.30;99.90;;;;;;4993013;28;20121;-82
2023/10/30 05:15:10;;;;;;;12.00;2.67;;;9.30;99.90;;;;;;4994058;28;20054;-82
2023/10/30 05:17:39;;;;;;;16.47;3.03;;;9.30;99.90;;;;;;4992769;28;20047;-82
2023/10/30 05:20:06;;;;;;;14.40;3.20;;;9.40;99.90;;;;;;4994736;28;20100;-82
2023/10/30 05:22:34;;;;;;;18.70;2.97;;;9.30;99.90;;;;;;4993901;28;20490;-82
2023/10/30 05:25:02;;;;;;;15.27;3.40;;;9.30;99.90;;;;;;4977394;28;20297;-82
2023/10/30 05:27:28;;;;;;;15.87;2.97;;;9.30;99.90;;;;;;4993820;28;20297;-82
2023/10/30 05:29:54;;;;;;;16.10;2.77;;;9.30;99.90;;;;;;4992880;28;20290;-82
2023/10/30 05:32:20;;;;;;;16.43;2.50;;;9.30;99.90;;;;;;4993476;28;20282;-82
2023/10/30 05:34:46;;;;;;;16.23;3.13;;;9.30;99.90;;;;;;4993740;28;20061;-82
2023/10/30 05:37:12;;;;;;;14.30;2.70;;;9.30;99.90;;;;;;4993777;28;20054;-82
2023/10/30 05:39:38;;;;;;;12.67;2.93;;;9.20;99.90;;;;;;4993277;28;20782;-82
2023/10/30 05:42:04;;;;;;;18.37;2.80;;;9.30;99.90;;;;;;4993316;28;20054;-82
2023/10/30 05:44:30;;;;;;;18.20;3.83;;;9.20;99.90;;;;;;4993711;28;20046;-83
2023/10/30 05:46:59;;;;;;;17.27;2.80;;;9.20;99.90;;;;;;4993542;28;20093;-82
2023/10/30 05:49:28;;;;;;;18.23;3.43;;;9.20;99.90;;;;;;4993581;28;20336;-82
2023/10/30 05:51:55;;;;;;;16.60;3.47;;;9.20;99.90;;;;;;4997368;28;20753;-82
2023/10/30 05:54:21;;;;;;;17.23;3.63;;;9.20;99.90;;;;;;4997129;28;20333;-83
2023/10/30 05:56:48;;;;;;;20.37;3.03;;;9.20;99.90;;;;;;4997733;28;20283;-83
2023/10/30 05:59:13;;;;;;;16.90;2.73;;;9.20;99.90;;;;;;4997550;28;20356;-83
2023/10/30 06:01:39;;;;;;;19.40;3.53;;;9.20;99.90;;;;;;4997276;28;20760;-83
2023/10/30 06:04:05;;;;;;;22.83;2.80;;;9.20;99.90;;;;;;4996911;28;20046;-83
2023/10/30 06:06:30;;;;;;;13.63;2.93;;;9.20;99.90;;;;;;4996743;28;20115;-84
2023/10/30 06:08:56;;;;;;;15.90;2.70;;;9.20;99.90;;;;;;4997048;28;20045;-82
2023/10/30 06:11:22;;;;;;;18.47;3.20;;;9.20;99.90;;;;;;4996628;28;20050;-82
2023/10/30 06:13:48;;;;;;;12.43;2.93;;;9.20;99.90;;;;;;4997003;28;20513;-82
2023/10/30 06:16:15;;;;;;;15.53;3.30;;;9.20;99.90;;;;;;4996965;28;20082;-82
2023/10/30 06:18:41;;;;;;;18.80;3.20;;;9.20;99.90;;;;;;4997511;28;20129;-82
2023/10/30 06:21:07;;;;;;;16.27;2.90;;;9.20;99.90;;;;;;4995743;28;20800;-82
2023/10/30 06:23:36;;;;;;;18.57;3.20;;;9.20;99.90;;;;;;4996073;28;20069;-83
2023/10/30 06:26:10;;;;;;;14.93;3.07;;;9.20;99.90;;;;;;4996804;28;20595;-82
2023/10/30 06:28:37;;;;;;;16.38;2.90;;;9.20;99.90;;;;;;4996533;28;20623;-83
2023/10/30 06:31:23;;;;;;;12.87;2.93;;;9.20;99.90;;;;;;4995466;28;20052;-82
2023/10/30 06:33:49;;;;;;;14.20;2.67;;;9.20;99.90;;;;;;4996556;28;20281;-82
2023/10/30 06:36:15;;;;;;;15.77;2.50;;;9.20;99.90;;;;;;4995646;28;20305;-82
2023/10/30 06:38:40;;;;;;;16.53;3.23;;;9.20;99.90;;;;;;4996457;28;20058;-82
2023/10/30 06:41:06;;;;;;;21.17;3.43;;;9.20;99.90;;;;;;4996451;28;20510;-82
2023/10/30 06:43:33;;;;;;;15.17;3.37;;;9.20;99.90;;;;;;4995791;28;20108;-82
2023/10/30 06:46:00;;;;;;;16.20;2.60;;;9.20;99.90;;;;;;4995225;28;20496;-82
2023/10/30 06:48:26;;;;;;;15.47;3.17;;;9.20;99.90;;;;;;4995766;28;20309;-81
2023/10/30 06:50:52;;;;;;;17.20;2.87;;;9.20;99.90;;;;;;4996870;28;20641;-82
2023/10/30 06:53:17;;;;;;;18.90;4.10;;;9.30;99.90;;;;;;4996823;28;20293;-82
2023/10/30 06:55:43;;;;;;;18.30;3.03;;;9.30;99.90;;;;;;4996233;28;20049;-83
2023/10/30 06:58:09;;;;;;;19.50;3.73;;;9.30;99.90;;;;;;4996212;28;20503;-82
2023/10/30 07:00:35;;;;;;;16.53;3.30;;;9.40;99.90;;;;;;4995730;28;20042;-82
2023/10/30 07:03:01;;;;;;;15.43;3.30;;;9.40;99.90;;;;;;4995790;28;20050;-81
2023/10/30 07:05:27;;;;;;;16.23;2.47;;;9.40;99.90;;;;;;4995112;28;20686;-81
2023/10/30 07:07:53;;;;;;;15.70;2.70;;;9.40;99.90;;;;;;4994819;28;20053;-82
2023/10/30 07:10:19;;;;;;;17.37;3.30;;;9.50;99.90;;;;;;4995569;28;20108;-82
2023/10/30 07:12:44;;;;;;;18.87;2.97;;;9.50;99.90;;;;;;4995008;28;20081;-82
2023/10/30 07:15:10;;;;;;;17.87;3.53;;;9.50;99.90;;;;;;4995613;28;20133;-82
2023/10/30 07:17:36;;;;;;;17.87;2.90;;;9.60;99.90;;;;;;4979435;28;20053;-82
2023/10/30 07:20:03;;;;;;;21.10;2.80;;;9.60;99.90;;;;;;4996341;28;20433;-82
2023/10/30 07:22:29;;;;;;;18.10;3.30;;;9.70;99.90;;;;;;4995757;28;20093;-82
2023/10/30 07:24:56;;;;;;;14.83;3.37;;;9.80;99.90;;;;;;4978371;28;20301;-82
2023/10/30 07:27:22;;;;;;;19.73;3.23;;;9.80;99.90;;;;;;4994694;28;20483;-84
2023/10/30 07:29:48;;;;;;;17.03;3.53;;;9.90;99.90;;;;;;4994451;28;20282;-84
2023/10/30 07:32:14;;;;;;;14.97;3.17;;;9.90;99.90;;;;;;4994635;28;20290;-85
2023/10/30 07:34:44;;;;;;;15.90;3.10;;;9.90;99.90;;;;;;4995331;28;20372;-78
2023/10/30 07:37:10;;;;;;;20.07;3.73;;;9.90;99.90;;;;;;4995864;28;20388;-81
2023/10/30 07:39:36;;;;;;;16.20;3.03;;;10.00;99.90;;;;;;4977885;28;20293;-79
2023/10/30 07:42:02;;;;;;;19.03;3.10;;;10.00;99.90;;;;;;4996001;28;20316;-74
2023/10/30 07:44:28;;;;;;;16.83;3.10;;;10.10;99.90;;;;;;4995300;28;20046;-76
2023/10/30 07:46:53;;;;;;;18.13;2.93;;;10.10;99.90;;;;;;4994948;28;20366;-76
2023/10/30 07:49:19;;;;;;;13.77;3.00;;;10.20;99.90;;;;;;4994313;28;20053;-76
2023/10/30 07:51:45;;;;;;;18.00;3.87;;;10.20;99.90;;;;;;4994275;28;20117;-79
2023/10/30 07:54:11;;;;;;;17.10;3.20;;;10.30;99.90;;;;;;4994489;28;20382;-76
2023/10/30 07:56:37;;;;;;;11.53;2.73;;;10.40;99.90;;;;;;4995349;28;20290;-76
2023/10/30 07:59:07;;;;;;;26.87;3.27;;;10.40;99.90;;;;;;4994633;28;20050;-76
2023/10/30 08:01:34;;;;;;;14.27;2.77;;;10.40;99.90;;;;;;4995842;28;20314;-76
2023/10/30 08:03:59;;;;;;;19.00;3.43;;;10.50;99.90;;;;;;4994983;28;20317;-77
2023/10/30 08:06:26;;;;;;;19.00;3.00;;;10.40;99.90;;;;;;4994278;28;20340;-76
2023/10/30 08:08:52;;;;;;;17.07;2.80;;;10.50;99.90;;;;;;4993942;28;20057;-76
2023/10/30 08:11:19;;;;;;;17.17;3.53;;;10.50;99.90;;;;;;4994824;28;20373;-76
2023/10/30 08:13:45;;;;;;;15.13;3.57;;;10.50;99.90;;;;;;4992878;28;20294;-76
2023/10/30 08:16:10;;;;;;;16.37;3.30;;;10.50;99.90;;;;;;4994479;28;20402;-77
2023/10/30 08:18:37;;;;;;;16.13;3.10;;;10.50;99.90;;;;;;4994714;28;20042;-77
2023/10/30 08:21:03;;;;;;;18.40;3.70;;;10.50;99.90;;;;;;4994699;28;20054;-76
2023/10/30 08:23:29;;;;;;;19.43;4.00;;;10.50;99.90;;;;;;4994102;28;20285;-77
2023/10/30 08:25:55;;;;;;;12.83;2.57;;;10.60;99.90;;;;;;4994587;28;20286;-77
2023/10/30 08:28:21;;;;;;;19.03;4.30;;;10.60;99.90;;;;;;4993478;28;20092;-77
2023/10/30 08:30:47;;;;;;;14.00;3.07;;;10.60;99.90;;;;;;4994668;28;20046;-81
2023/10/30 08:33:12;;;;;;;16.90;3.13;;;10.70;99.90;;;;;;4993312;28;20776;-77
2023/10/30 08:35:38;;;;;;;17.57;4.00;;;10.70;99.90;;;;;;4994752;28;20170;-77
2023/10/30 08:38:04;;;;;;;13.30;2.80;;;10.80;99.90;;;;;;4993068;28;20062;-77
2023/10/30 08:40:30;;;;;;;13.83;3.13;;;10.80;99.90;;;;;;4993571;28;20384;-77
2023/10/30 08:42:55;;;;;;;16.10;2.90;;;10.80;99.90;;;;;;4995146;28;20046;-76
2023/10/30 08:45:22;;;;;;;16.87;3.70;;;10.80;99.90;;;;;;4977974;28;20758;-77
2023/10/30 08:47:48;;;;;;;16.70;3.40;;;10.90;99.90;;;;;;4994586;28;20042;-76
2023/10/30 08:50:14;;;;;;;17.93;3.67;;;10.90;99.90;;;;;;4993921;28;20324;-78
2023/10/30 08:52:40;;;;;;;18.90;3.60;;;10.90;99.90;;;;;;4993813;28;20324;-78
2023/10/30 08:55:07;;;;;;;16.97;3.60;;;11.00;99.90;;;;;;4994814;28;20070;-78
2023/10/30 08:57:42;;;;;;;15.10;3.20;;;11.00;99.90;;;;;;4994148;28;20313;-78
2023/10/30 09:00:09;;;;;;;19.03;4.07;;;11.10;99.90;;;;;;4993504;28;20297;-78
2023/10/30 09:02:34;;;;;;;11.53;2.53;;;11.20;99.90;;;;;;4993250;28;20306;-78
2023/10/30 09:05:00;;;;;;;17.70;3.23;;;11.30;99.90;;;;;;4994101;28;20289;-78
2023/10/30 09:07:26;;;;;;;15.87;3.70;;;11.30;99.90;;;;;;4994631;28;20101;-78
2023/10/30 09:09:52;;;;;;;15.23;3.07;;;11.30;99.90;;;;;;4993822;28;20050;-78
2023/10/30 09:12:17;;;;;;;16.10;3.77;;;11.30;99.90;;;;;;4994073;28;20050;-78
2023/10/30 09:14:43;;;;;;;21.13;3.93;;;11.40;99.90;;;;;;4992886;28;20129;-78
2023/10/30 09:17:09;;;;;;;14.33;3.40;;;11.30;99.90;;;;;;4992760;28;20042;-79
2023/10/30 09:19:36;;;;;;;20.70;3.83;;;11.30;99.90;;;;;;4994013;28;20042;-78
2023/10/30 09:22:03;;;;;;;13.40;3.07;;;11.30;99.90;;;;;;4994321;28;20623;-78
2023/10/30 09:24:28;;;;;;;16.87;3.40;;;11.30;99.90;;;;;;4995041;28;20296;-78
2023/10/30 09:26:54;;;;;;;15.87;3.27;;;11.30;99.90;;;;;;4997945;28;20285;-78
2023/10/30 09:29:20;;;;;;;18.27;3.43;;;11.30;99.90;;;;;;4997883;28;20043;-78
2023/10/30 09:31:46;;;;;;;13.17;2.90;;;11.40;99.90;;;;;;4997834;28;20046;-78
2023/10/30 09:34:12;;;;;;;18.70;3.27;;;11.40;99.90;;;;;;4998502;28;20061;-78
2023/10/30 09:36:38;;;;;;;17.13;3.90;;;11.50;99.90;;;;;;4997735;28;20057;-78
2023/10/30 09:39:04;;;;;;;16.90;3.60;;;11.50;99.90;;;;;;4997262;28;20055;-78
2023/10/30 09:41:31;;;;;;;13.67;2.90;;;11.60;99.90;;;;;;4998213;28;20763;-78
2023/10/30 09:43:58;;;;;;;18.57;3.60;;;11.60;99.90;;;;;;4997663;28;20403;-78
2023/10/30 09:46:28;;;;;;;14.97;3.63;;;11.70;99.90;;;;;;4997594;28;20292;-78
2023/10/30 09:48:55;;;;;;;16.37;3.17;;;11.70;99.90;;;;;;4997896;28;20282;-78
2023/10/30 09:51:21;;;;;;;19.40;4.47;;;11.70;99.90;;;;;;4997023;28;20836;-78
2023/10/30 09:53:50;;;;;;;10.93;2.80;;;11.70;99.90;;;;;;4998495;28;20292;-78
2023/10/30 09:56:16;;;;;;;17.83;3.70;;;11.80;99.90;;;;;;4997349;28;20339;-78
2023/10/30 09:58:42;;;;;;;13.27;3.10;;;11.80;99.90;;;;;;4996155;28;20317;-78
2023/10/30 10:01:08;;;;;;;15.37;3.63;;;11.90;99.90;;;;;;4997275;28;20050;-78
2023/10/30 10:03:33;;;;;;;15.03;3.20;;;12.00;99.90;;;;;;4997315;28;20284;-78
2023/10/30 10:06:00;;;;;;;13.40;3.17;;;12.00;99.90;;;;;;4997229;28;20053;-78
2023/10/30 10:08:26;;;;;;;16.53;3.40;;;12.20;99.90;;;;;;4997693;28;20048;-78
2023/10/30 10:10:57;;;;;;;23.23;3.63;;;12.20;99.90;;;;;;4997708;28;20296;-78
2023/10/30 10:13:23;;;;;;;16.93;3.00;;;12.20;99.90;;;;;;4997116;28;20309;-79
2023/10/30 10:15:49;;;;;;;16.20;3.03;;;12.20;99.90;;;;;;4997034;28;20285;-78
2023/10/30 10:18:26;;;;;;;16.17;3.73;;;12.20;99.90;;;;;;4996961;28;20305;-78
2023/10/30 10:21:01;;;;;;;12.77;3.03;;;12.20;99.90;;;;;;4997750;28;20288;-78
2023/10/30 10:23:34;;;;;;;17.95;3.10;;;12.20;99.90;;;;;;4996371;28;20285;-78
2023/10/30 10:26:04;;;;;;;14.23;3.17;;;12.30;99.90;;;;;;4997014;28;20081;-78
2023/10/30 10:28:32;;;;;;;14.80;2.63;;;12.30;99.90;;;;;;4997677;28;20330;-78
2023/10/30 10:30:58;;;;;;;20.57;3.57;;;12.30;99.90;;;;;;4996082;28;20300;-79
2023/10/30 10:33:27;;;;;;;16.97;2.87;;;12.40;99.90;;;;;;4997474;28;20673;-79
2023/10/30 10:36:04;;;;;;;17.03;3.40;;;12.40;99.90;;;;;;4995422;28;20372;-79
2023/10/30 10:38:31;;;;;;;16.73;3.23;;;12.50;99.90;;;;;;4996851;28;20665;-78
2023/10/30 10:40:57;;;;;;;15.37;3.00;;;12.50;99.90;;;;;;4996372;28;20301;-79
2023/10/30 10:43:24;;;;;;;13.43;2.73;;;12.50;99.90;;;;;;4996331;28;20290;-79
2023/10/30 10:45:52;;;;;;;15.53;3.20;;;12.50;99.90;;;;;;4996223;28;20883;-79
2023/10/30 10:48:19;;;;;;;20.03;3.50;;;12.50;99.90;;;;;;4996432;28;20296;-79
2023/10/30 10:50:46;;;;;;;14.40;2.83;;;12.50;99.90;;;;;;4996561;28;20281;-79
2023/10/30 10:53:12;;;;;;;19.00;3.23;;;12.60;99.90;;;;;;4996406;28;20637;-79
2023/10/30 10:55:49;;;;;;;14.93;3.10;;;12.60;99.90;;;;;;4996326;28;20285;-79
2023/10/30 10:58:31;;;;;;;13.77;2.93;;;12.60;99.90;;;;;;4996224;28;20298;-79
2023/10/30 11:00:59;;;;;;;14.70;3.30;;;12.60;99.90;;;;;;4996971;28;20289;-79
2023/10/30 11:03:27;;;;;;;13.70;2.70;;;12.60;99.90;;;;;;4996213;28;20281;-79
2023/10/30 11:05:53;;;;;;;12.10;3.23;;;12.60;99.90;;;;;;4995149;28;20294;-79
2023/10/30 11:08:48;;;;;;;18.40;3.53;;;12.60;99.90;;;;;;4996029;28;20282;-79
2023/10/30 11:11:30;;;;;;;14.43;3.00;;;12.60;99.90;;;;;;4996103;28;20332;-80
2023/10/30 11:14:27;;;;;;;15.97;3.33;;;12.60;99.90;;;;;;4995850;28;20297;-79
2023/10/30 11:17:00;;;;;;;11.87;3.43;;;12.60;99.90;;;;;;4994788;28;20308;-79
2023/10/30 11:19:28;;;;;;;18.63;3.93;;;12.60;99.90;;;;;;4996197;28;20343;-79
2023/10/30 11:21:54;;;;;;;18.47;3.17;;;12.60;99.90;;;;;;4995818;28;20285;-79
2023/10/30 11:24:43;;;;;;;17.87;3.60;;;12.60;99.90;;;;;;4995838;28;20697;-79
2023/10/30 11:27:38;;;;;;;16.23;3.77;;;12.70;99.90;;;;;;4978560;28;20333;-79
2023/10/30 11:30:10;;;;;;;14.80;3.22;;;12.70;99.90;;;;;;4987076;28;20294;-79
2023/10/30 11:32:46;;;;;;;16.70;3.93;;;12.70;99.90;;;;;;4995669;28;20051;-79
2023/10/30 11:35:11;;;;;;;14.60;3.60;;;12.70;99.90;;;;;;4979318;28;20296;-79
2023/10/30 11:37:39;;;;;;;20.23;4.40;;;12.70;99.90;;;;;;4994494;28;20125;-79
2023/10/30 11:40:09;;;;;;;17.43;3.33;;;12.70;99.90;;;;;;4977739;28;20564;-79
2023/10/30 11:42:40;;;;;;;14.47;3.80;;;12.70;99.90;;;;;;4995204;28;20316;-79
2023/10/30 11:45:18;;;;;;;14.67;3.20;;;12.70;99.90;;;;;;4995461;28;20286;-79
2023/10/30 11:47:49;;;;;;;14.73;2.87;;;12.70;99.90;;;;;;4995124;28;20795;-79
2023/10/30 11:50:18;;;;;;;18.67;3.50;;;12.70;99.90;;;;;;4995924;28;20324;-79
2023/10/30 11:52:46;;;;;;;14.57;2.67;;;12.70;99.90;;;;;;4995286;28;20285;-79
2023/10/30 11:55:12;;;;;;;13.17;3.43;;;12.70;99.90;;;;;;4995269;28;20352;-79
2023/10/30 11:57:38;;;;;;;17.03;3.00;;;12.70;99.90;;;;;;4993914;28;20302;-79
2023/10/30 12:00:04;;;;;;;18.60;3.60;;;12.70;99.90;;;;;;4994441;28;20054;-79
2023/10/30 12:02:30;;;;;;;16.00;3.47;;;12.70;99.90;;;;;;4993900;28;20137;-79
2023/10/30 12:05:06;;;;;;;21.13;3.30;;;12.60;99.90;;;;;;4995028;28;20332;-79
2023/10/30 12:07:31;;;;;;;17.50;3.63;;;12.60;99.90;;;;;;4978597;28;20417;-79
2023/10/30 12:10:03;;;;;;;17.17;3.43;;;12.60;99.90;;;;;;4994947;28;20385;-79
2023/10/30 12:12:30;;;;;;;15.33;3.40;;;12.60;99.90;;;;;;4995524;28;20061;-79
2023/10/30 12:15:00;;;;;;;13.07;3.43;;;12.60;99.90;;;;;;4994705;28;20293;-79
2023/10/30 12:17:28;;;;;;;16.83;3.63;;;12.60;99.90;;;;;;4994695;28;20384;-79
2023/10/30 12:19:54;;;;;;;11.13;3.10;;;12.60;99.90;;;;;;4994540;28;20845;-79
2023/10/30 12:22:21;;;;;;;14.63;3.33;;;12.60;99.90;;;;;;4994993;28;20368;-79
2023/10/30 12:24:49;;;;;;;17.07;3.43;;;12.60;99.90;;;;;;4994722;28;20372;-79
2023/10/30 12:27:22;;;;;;;19.43;4.03;;;12.60;99.90;;;;;;4995181;28;20633;-79
2023/10/30 12:29:53;;;;;;;17.97;3.50;;;12.60;99.90;;;;;;4995150;28;20284;-79
2023/10/30 12:32:20;;;;;;;12.30;3.80;;;12.60;99.90;;;;;;4994838;28;20321;-79
2023/10/30 12:34:45;;;;;;;16.33;3.37;;;12.70;99.90;;;;;;4994544;28;20368;-79
2023/10/30 12:37:23;;;;;;;17.77;3.37;;;12.70;99.90;;;;;;4994407;28;20385;-79
2023/10/30 12:40:03;;;;;;;15.07;4.23;;;12.70;99.90;;;;;;4994491;28;20137;-79
2023/10/30 12:42:31;;;;;;;13.20;3.43;;;12.70;99.90;;;;;;4994333;28;20646;-79